Flight Track Log - Related Links

Times and Time Zones

All times are in EDT time to prevent confusion due to time zone crossing. See the SKQ901 flight status page for this flight to view local times or setup timezone preferences in your user account.

Time Position Orientation Groundspeed Altitude Reporting Facility
EDT Latitude Longitude Course Direction KTS MPH feet Rate Location/Type
Mon 10:40:28 PM 35.9886 -80.0303 265° West 184 212 8,000  Level Atlanta Center
Mon 10:41:28 PM 35.9844 -80.0944 262° West 179 206 8,000  Level Atlanta Center
Mon 10:42:28 PM 35.9781 -80.1514 265° West 174 200 8,000  Level Atlanta Center
Mon 10:43:28 PM 35.9736 -80.2106 262° West 174 200 8,000  Level Atlanta Center
Mon 10:44:28 PM 35.9669 -80.2672 264° West 179 206 8,000  Level Atlanta Center
Mon 10:45:28 PM 35.9622 -80.3189 263° West 179 206 8,000  Level Atlanta Center
Mon 10:46:28 PM 35.9558 -80.3808 264° West 179 206 8,000  Level Atlanta Center
Mon 10:47:28 PM 35.9511 -80.4372 261° West 179 206 8,000  Level Atlanta Center
Mon 10:48:28 PM 35.9428 -80.5044 264° West 185 213 8,000  Level Atlanta Center
Mon 10:49:28 PM 35.9381 -80.5636 264° West 179 206 8,000  Level Atlanta Center
Mon 10:50:28 PM 35.9333 -80.6150 262° West 179 206 8,000  Level Atlanta Center
Mon 10:51:28 PM 35.9267 -80.6744 262° West 179 206 8,000  Level Atlanta Center
Mon 10:52:28 PM 35.9200 -80.7336 261° West 179 206 8,000  Level Atlanta Center
Mon 10:53:28 PM 35.9131 -80.7903 267° West 179 206 8,000  Level Atlanta Center
Mon 10:54:28 PM 35.9106 -80.8494 261° West 179 206 8,000  Level Atlanta Center
Mon 10:55:28 PM 35.9036 -80.9061 262° West 179 206 8,000  Level Atlanta Center
Mon 10:56:28 PM 35.8967 -80.9653 264° West 179 206 8,000  Level Atlanta Center
Mon 10:57:28 PM 35.8919 -81.0244 260° West 179 206 8,000  Level Atlanta Center
Mon 10:58:28 PM 35.8831 -81.0889 264° West 179 206 8,000  Level Atlanta Center
Mon 10:59:28 PM 35.8783 -81.1478 264° West 179 206 8,000  Level Atlanta Center
Mon 11:00:28 PM 35.8733 -81.2069 256° West 179 206 8,000  Level Atlanta Center
Mon 11:01:28 PM 35.8622 -81.2639 214° Southwest 179 206 8,000  Level Atlanta Center
Mon 11:02:28 PM 35.8150 -81.3039 220° Southwest 179 206 8,000  Level Atlanta Center
Mon 11:03:28 PM 35.7722 -81.3489 222° Southwest 200 230 8,000  Level Atlanta Center
Mon 11:04:28 PM 35.7314 -81.3936 222° Southwest 200 230 8,000  Level Atlanta Center
Mon 11:05:28 PM 35.6908 -81.4383 222° Southwest 200 230 8,000  Level Atlanta Center
Mon 11:06:28 PM 35.6500 -81.4831 225° Southwest 200 230 8,000  Level Atlanta Center
Mon 11:07:28 PM 35.6114 -81.5303 222° Southwest 200 230 8,000  Level Atlanta Center
Mon 11:08:28 PM 35.5683 -81.5775 220° Southwest 200 230 8,000  Level Atlanta Center
Mon 11:09:28 PM 35.5275 -81.6197 223° Southwest 205 236 8,000  Level Atlanta Center
Mon 11:10:28 PM 35.4867 -81.6667 223° Southwest 205 236 8,000  Level Atlanta Center
Mon 11:11:28 PM 35.4481 -81.7111 220° Southwest 200 230 8,000 50 Level Atlanta Center
Mon 11:12:28 PM 35.4050 -81.7558 224° Southwest 200 230 8,100 50 Climbing Atlanta Center
Mon 11:13:28 PM 35.3703 -81.7975 222° Southwest 200 230 8,100  Level Atlanta Center
Mon 11:14:28 PM 35.3272 -81.8444 222° Southwest 205 236 8,100  Level Atlanta Center
Mon 11:15:28 PM 35.2864 -81.8889 222° Southwest 205 236 8,100  Level Atlanta Center
Mon 11:16:28 PM 35.2433 -81.9356 221° Southwest 205 236 8,100  Level Atlanta Center
Mon 11:17:28 PM 35.2022 -81.9800 221° Southwest 205 236 8,100  Level Atlanta Center
Mon 11:18:28 PM 35.1614 -82.0242 223° Southwest 205 236 8,100  Level Atlanta Center
Mon 11:19:28 PM 35.1203 -82.0708 221° Southwest 210 242 8,100  Level Atlanta Center
Mon 11:30:28 PM 34.6475 -82.5744 223° Southwest 217 250 8,100  Level Atlanta Center
Mon 11:31:28 PM 34.6042 -82.6231 223° Southwest 218 251 8,100  Level Atlanta Center
Mon 11:32:28 PM 34.5608 -82.6717 220° Southwest 218 251 8,100  Level Atlanta Center
Mon 11:33:28 PM 34.5175 -82.7153 221° Southwest 212 244 8,100  Level Atlanta Center
Mon 11:34:28 PM 34.4742 -82.7614 221° Southwest 212 244 8,100  Level Atlanta Center
Mon 11:35:28 PM 34.4308 -82.8072 223° Southwest 212 244 8,100  Level Atlanta Center
Mon 11:36:28 PM 34.3897 -82.8531 221° Southwest 212 244 8,100  Level Atlanta Center
Mon 11:37:28 PM 34.3461 -82.8992 223° Southwest 212 244 8,100  Level Atlanta Center
Mon 11:38:28 PM 34.3008 -82.9500 221° Southwest 212 244 8,100  Level Atlanta Center
Mon 11:39:28 PM 34.2572 -82.9958 221° Southwest 212 244 8,100  Level Atlanta Center
Mon 11:40:28 PM 34.2119 -83.0442 221° Southwest 212 244 8,100  Level Atlanta Center
Mon 11:41:28 PM 34.1683 -83.0897 221° Southwest 212 244 8,100  Level Atlanta Center
Mon 11:42:28 PM 34.1247 -83.1356 223° Southwest 212 244 8,100  Level Atlanta Center
Mon 11:43:28 PM 34.0814 -83.1836 220° Southwest 212 244 8,100  Level Atlanta Center
Mon 11:44:28 PM 34.0358 -83.2292 221° Southwest 212 244 8,100 50 Level Atlanta Center
Mon 11:45:28 PM 33.9922 -83.2747 222° Southwest 212 244 8,200 50 Climbing Atlanta Center
Mon 11:46:28 PM 33.9486 -83.3225 248° West 212 244 8,200  Level Atlanta Center
Mon 11:47:28 PM 33.9303 -83.3778 272° West 198 228 8,200  Level Atlanta Center
Mon 11:48:28 PM 33.9325 -83.4406 266° West 187 215 8,200  Level Atlanta Center
Mon 11:49:28 PM 33.9286 -83.5006 270° West 182 209 8,200 -50 Level Atlanta Center
Mon 11:50:28 PM 33.9289 -83.5606 262° West 182 209 8,100 -413 Descending Atlanta Center
Mon 11:52:08 PM 33.9167 -83.6667 270° West 196 226 7,100 -525 Descending Atlanta TRACON
Mon 11:53:08 PM 33.9167 -83.7333 270° West 194 223 6,700 -474 Descending Atlanta TRACON
Mon 11:54:02 PM 33.9167 -83.7833 270° West 191 220 6,200 -1,167 Descending Atlanta TRACON
Mon 11:54:56 PM 33.9167 -83.8500 254° West 205 236 4,600 -1,535 Descending Atlanta TRACON
Mon 11:55:28 PM 33.9089 -83.8836 265° West 206 237 4,000 -326 Descending Atlanta Center
Mon 11:56:28 PM 33.9047 -83.9411 265° West 193 222 4,100 -200 Climbing Atlanta Center
Mon 11:57:28 PM 33.9006 -84.0039 263° West 182 209 3,600 -600 Descending Atlanta Center
Mon 11:58:28 PM 33.8944 -84.0639 262° West 176 203 2,900 1,200 Descending Atlanta Center
Mon 11:59:28 PM 33.8881 -84.1164 262° West 176 203 6,000 3,100 Climbing Atlanta Center
Tue 12:07:15 AM 33.8667 -84.3000 350° North  Level FlightAware Approximate
Tue 12:08:15 AM 33.9194 -84.3116 170° South  Level Estimated
Tue 12:09:15 AM 33.8667 -84.3000 350° North  Level FlightAware Approximate
Tue 12:10:15 AM 33.9194 -84.3116 170° South  Level Estimated
Tue 12:11:15 AM 33.8667 -84.3000 350° North  Level FlightAware Approximate
Tue 12:12:15 AM 33.9194 -84.3116 170° South  Level Estimated
Tue 12:13:15 AM 33.8667 -84.3000 350° North  Level FlightAware Approximate
Tue 12:14:15 AM 33.9194 -84.3116 170° South  Level Estimated
Tue 12:15:15 AM 33.8667 -84.3000 350° North  Level FlightAware Approximate
Tue 12:16:15 AM 33.9194 -84.3116 170° South  Level Estimated
Tue 12:17:15 AM 33.8667 -84.3000 350° North  Level FlightAware Approximate
Tue 12:18:15 AM 33.9194 -84.3116 170° South  Level Estimated
Tue 12:19:15 AM 33.8667 -84.3000 170° South  Level FlightAware Approximate

Login

Don't have an account? Register now (free) for customized features, flight alerts, and more!